KWAL/WAL METAR and TAF weather

Enter ICAO airport designator
Station Type Date Time Source
KWAL METAR 2019/06/18 11:54 UTC NOAA

KWAL 181154Z 23006KT 10SM SCT140 BKN240 27/22 A2996 RMK AO2 SLP143 T02670217 10267 20228 53001


Station Type Date Time Source
KWAL Decoded METAR 2019/06/18 11:54 UTC NOAA

WALLOPS FLIGHT FAC AIRPORT , VA, United States (KWAL) 37-56N 075-28W 14M
Jun 18, 2019 - 07:54 AM EDT / 2019.06.18 1154 UTC
Wind: from the SW (230 degrees) at 7 MPH (6 KT):0
Visibility: 10 mile(s):0
Sky conditions: mostly cloudy
Temperature: 80.1 F (26.7 C)
Dew Point: 71.1 F (21.7 C)
Relative Humidity: 74%
Pressure (altimeter): 29.96 in. Hg (1014 hPa)
Pressure tendency: 0.00 inches (0.1 hPa) higher than three hours ago
ob: KWAL 181154Z 23006KT 10SM SCT140 BKN240 27/22 A2996 RMK AO2 SLP143 T02670217 10267 20228 53001
cycle: 12

Station Type Date Time Source
KWAL TAF UTC NOAA

Error!

Example: see airport list